createdAt,value
2018-12-20T00:02:22.366Z,7.60
2018-12-20T00:05:11.465Z,7.50
2018-12-20T00:07:56.677Z,7.50
2018-12-20T00:10:39.040Z,7.40
2018-12-20T00:13:26.122Z,7.30
2018-12-20T00:16:01.383Z,7.30
2018-12-20T00:18:48.387Z,7.20
2018-12-20T00:21:30.898Z,7.20
2018-12-20T00:24:06.289Z,7.20
2018-12-20T00:26:43.110Z,7.10
2018-12-20T00:29:24.070Z,7.10
2018-12-20T00:31:56.571Z,7.00
2018-12-20T00:34:30.648Z,7.00
2018-12-20T00:37:19.153Z,6.90
2018-12-20T00:40:06.584Z,6.90
2018-12-20T00:42:59.004Z,6.90
2018-12-20T00:45:33.360Z,6.90
2018-12-20T00:48:13.423Z,6.90
2018-12-20T00:50:49.271Z,6.90
2018-12-20T00:56:19.470Z,6.90
2018-12-20T00:58:57.032Z,6.80
2018-12-20T01:01:32.044Z,6.80
2018-12-20T01:04:07.919Z,6.80
2018-12-20T01:06:54.909Z,6.90
2018-12-20T01:09:35.248Z,6.80
2018-12-20T01:12:17.041Z,6.80
2018-12-20T01:14:53.550Z,6.90
2018-12-20T01:17:38.723Z,7.00
2018-12-20T01:20:23.283Z,7.10
2018-12-20T01:22:57.844Z,7.20
2018-12-20T01:25:38.761Z,7.20
2018-12-20T01:28:24.242Z,7.20
2018-12-20T01:30:59.802Z,7.10
2018-12-20T01:33:51.029Z,7.20
2018-12-20T01:36:30.581Z,7.20
2018-12-20T01:39:06.363Z,7.20
2018-12-20T01:41:44.418Z,7.30
2018-12-20T01:44:29.281Z,7.20
2018-12-20T01:47:10.079Z,7.20
2018-12-20T01:49:56.699Z,7.20
2018-12-20T01:52:28.898Z,7.30
2018-12-20T01:55:17.743Z,7.30
2018-12-20T01:57:55.622Z,7.40
2018-12-20T02:00:28.261Z,7.30
2018-12-20T02:03:04.738Z,7.30
2018-12-20T02:05:39.419Z,7.40
2018-12-20T02:08:24.495Z,7.40
2018-12-20T02:10:57.866Z,7.40
2018-12-20T02:16:40.680Z,7.50
2018-12-20T02:19:29.263Z,7.50
2018-12-20T02:22:05.655Z,7.50
2018-12-20T02:24:53.787Z,7.50
2018-12-20T02:27:29.302Z,7.50
2018-12-20T02:30:09.063Z,7.40
2018-12-20T02:32:51.087Z,7.40
2018-12-20T02:35:27.528Z,7.40
2018-12-20T02:38:04.440Z,7.40
2018-12-20T02:40:52.436Z,7.30
2018-12-20T02:43:33.005Z,7.20
2018-12-20T02:46:07.473Z,7.20
2018-12-20T02:49:00.619Z,7.20
2018-12-20T02:51:45.565Z,7.10
2018-12-20T02:57:27.065Z,7.10
2018-12-20T02:59:58.867Z,7.10
2018-12-20T03:02:42.318Z,7.20
2018-12-20T03:05:27.108Z,7.10
2018-12-20T03:08:08.917Z,7.10
2018-12-20T03:10:43.549Z,7.10
2018-12-20T03:13:20.922Z,7.10
2018-12-20T03:16:08.572Z,7.10
2018-12-20T03:18:42.727Z,7.20
2018-12-20T03:21:17.625Z,7.20
2018-12-20T03:23:52.539Z,7.20
2018-12-20T03:26:27.477Z,7.20
2018-12-20T03:29:02.863Z,7.20
2018-12-20T03:31:37.891Z,7.20
2018-12-20T03:34:25.121Z,7.20
2018-12-20T03:36:58.947Z,7.20
2018-12-20T03:39:38.361Z,7.20
2018-12-20T03:45:16.138Z,7.30
2018-12-20T03:47:56.757Z,7.30
2018-12-20T03:50:29.538Z,7.30
2018-12-20T03:53:08.927Z,7.30
2018-12-20T03:55:53.890Z,7.30
2018-12-20T03:58:30.597Z,7.30
2018-12-20T04:01:16.706Z,7.40
2018-12-20T04:03:54.890Z,7.30
2018-12-20T04:06:29.112Z,7.40
2018-12-20T04:09:06.278Z,7.40
2018-12-20T04:11:54.250Z,7.40
2018-12-20T04:14:35.466Z,7.40
2018-12-20T04:17:09.927Z,7.40
2018-12-20T04:19:46.557Z,7.40
2018-12-20T04:22:23.793Z,7.50
2018-12-20T04:24:58.290Z,7.40
2018-12-20T04:27:34.160Z,7.40
2018-12-20T04:30:22.144Z,7.40
2018-12-20T04:33:13.698Z,7.40
2018-12-20T04:35:58.939Z,7.40
2018-12-20T04:38:51.999Z,7.40
2018-12-20T04:41:27.067Z,7.50
2018-12-20T04:44:02.082Z,7.50
2018-12-20T04:46:53.123Z,7.60
2018-12-20T04:49:27.525Z,7.60
2018-12-20T04:52:02.283Z,7.60
2018-12-20T04:57:29.297Z,7.60
2018-12-20T05:00:11.907Z,7.60
2018-12-20T05:02:54.372Z,7.60
2018-12-20T05:05:27.682Z,7.60
2018-12-20T05:08:02.685Z,7.60
2018-12-20T05:10:38.820Z,7.60
2018-12-20T05:13:12.724Z,7.60
2018-12-20T05:15:56.070Z,7.50
2018-12-20T05:18:26.880Z,7.60
2018-12-20T05:20:59.308Z,7.60
2018-12-20T05:23:34.634Z,7.60
2018-12-20T05:26:10.963Z,7.50
2018-12-20T05:28:46.537Z,7.60
2018-12-20T05:31:21.276Z,7.60
2018-12-20T05:33:56.237Z,7.60
2018-12-20T05:36:36.822Z,7.60
2018-12-20T05:39:11.600Z,7.60
2018-12-20T05:41:50.654Z,7.50
2018-12-20T05:44:25.814Z,7.50
2018-12-20T05:47:02.094Z,7.50
2018-12-20T05:49:38.021Z,7.40
2018-12-20T05:52:20.972Z,7.40
2018-12-20T05:54:54.272Z,7.30
2018-12-20T05:57:35.396Z,7.30
2018-12-20T06:00:20.222Z,7.20
2018-12-20T06:02:55.600Z,7.20
2018-12-20T06:05:42.804Z,7.20
2018-12-20T06:08:18.043Z,7.10
2018-12-20T06:10:52.974Z,7.20
2018-12-20T06:13:32.919Z,7.10
2018-12-20T06:16:18.055Z,7.00
2018-12-20T06:18:56.425Z,7.00
2018-12-20T06:21:33.153Z,7.00
2018-12-20T06:24:18.064Z,7.00
2018-12-20T06:27:02.764Z,7.00
2018-12-20T06:29:38.318Z,6.90
2018-12-20T06:32:16.133Z,6.90
2018-12-20T06:34:57.283Z,6.90
2018-12-20T06:37:38.003Z,6.90
2018-12-20T06:40:10.897Z,6.90
2018-12-20T06:42:46.011Z,6.80
2018-12-20T06:45:21.972Z,6.80
2018-12-20T06:47:53.598Z,6.80
2018-12-20T06:50:27.942Z,6.80
2018-12-20T06:53:15.270Z,6.70
2018-12-20T06:55:54.143Z,6.70
2018-12-20T06:58:29.041Z,6.70
2018-12-20T07:01:04.812Z,6.70
2018-12-20T07:03:45.870Z,6.70
2018-12-20T07:06:28.463Z,6.70
2018-12-20T07:09:06.014Z,6.70
2018-12-20T07:11:42.776Z,6.70
2018-12-20T07:14:18.435Z,6.70
2018-12-20T07:16:53.483Z,6.60
2018-12-20T07:19:28.175Z,6.60
2018-12-20T07:22:04.893Z,6.60
2018-12-20T07:24:39.630Z,6.60
2018-12-20T07:27:26.863Z,6.60
2018-12-20T07:30:08.605Z,6.60
2018-12-20T07:32:45.887Z,6.60
2018-12-20T07:38:24.655Z,6.50
2018-12-20T07:41:00.198Z,6.50
2018-12-20T07:43:34.853Z,6.50
2018-12-20T07:46:09.579Z,6.50
2018-12-20T07:48:43.021Z,6.50
2018-12-20T07:51:15.337Z,6.50
2018-12-20T07:53:51.501Z,6.60
2018-12-20T07:56:27.431Z,6.60
2018-12-20T07:58:59.634Z,6.70
2018-12-20T08:01:40.257Z,6.70
2018-12-20T08:04:19.732Z,6.70
2018-12-20T08:06:59.403Z,6.70
2018-12-20T08:09:34.314Z,6.80
2018-12-20T08:12:21.156Z,6.80
2018-12-20T08:14:56.299Z,6.90
2018-12-20T08:17:33.247Z,6.90
2018-12-20T08:20:08.249Z,6.90
2018-12-20T08:22:48.706Z,6.90
2018-12-20T08:25:22.104Z,7.00
2018-12-20T08:27:56.198Z,7.00
2018-12-20T08:30:28.683Z,7.00
2018-12-20T08:33:02.861Z,7.00
2018-12-20T08:35:36.513Z,7.10
2018-12-20T08:38:10.496Z,7.10
2018-12-20T08:40:45.368Z,7.00
2018-12-20T08:43:18.794Z,7.00
2018-12-20T08:45:55.030Z,7.00
2018-12-20T08:48:29.802Z,7.00
2018-12-20T08:51:05.455Z,7.00
2018-12-20T08:53:39.007Z,7.00
2018-12-20T08:56:15.015Z,7.00
2018-12-20T08:59:04.401Z,7.00
2018-12-20T09:01:34.466Z,7.00
2018-12-20T09:04:10.532Z,7.10
2018-12-20T09:06:46.410Z,7.10
2018-12-20T09:09:39.511Z,7.10
2018-12-20T09:12:28.096Z,7.20
2018-12-20T09:15:01.000Z,7.20
2018-12-20T09:17:40.275Z,7.30
2018-12-20T09:20:13.861Z,7.30
2018-12-20T09:22:53.963Z,7.30
2018-12-20T09:25:29.001Z,7.40
2018-12-20T09:28:03.572Z,7.40
2018-12-20T09:30:36.111Z,7.40
2018-12-20T09:33:14.303Z,7.40
2018-12-20T09:35:54.986Z,7.40
2018-12-20T09:38:33.237Z,7.40
2018-12-20T09:41:08.128Z,7.40
2018-12-20T09:43:42.820Z,7.50
2018-12-20T09:46:23.836Z,7.40
2018-12-20T09:49:00.231Z,7.40
2018-12-20T09:51:47.161Z,7.50
2018-12-20T09:54:23.844Z,7.50
2018-12-20T10:00:01.754Z,7.60
2018-12-20T10:02:39.150Z,7.60
2018-12-20T10:05:13.918Z,7.70
2018-12-20T10:07:48.457Z,7.70
2018-12-20T10:10:24.286Z,7.80
2018-12-20T10:13:00.133Z,7.80
2018-12-20T10:15:39.956Z,7.80
2018-12-20T10:18:14.709Z,7.80
2018-12-20T10:20:53.317Z,7.80
2018-12-20T10:23:28.643Z,7.80
2018-12-20T10:26:03.029Z,7.70
2018-12-20T10:28:43.769Z,7.70
2018-12-20T10:31:18.625Z,7.80
2018-12-20T10:33:50.980Z,7.80
2018-12-20T10:36:31.114Z,7.70
2018-12-20T10:39:06.979Z,7.70
2018-12-20T10:41:42.539Z,7.70
2018-12-20T10:44:20.628Z,7.70
2018-12-20T10:47:01.362Z,7.80
2018-12-20T10:49:34.995Z,7.90
2018-12-20T10:52:11.124Z,7.90
2018-12-20T10:54:49.858Z,7.90
2018-12-20T10:57:28.872Z,7.80
2018-12-20T11:00:10.971Z,7.80
2018-12-20T11:02:50.482Z,7.70
2018-12-20T11:05:40.181Z,7.70
2018-12-20T11:08:23.328Z,7.70
2018-12-20T11:11:05.116Z,7.90
2018-12-20T11:13:39.804Z,7.90
2018-12-20T11:16:16.882Z,8.10
2018-12-20T11:24:36.379Z,8.10
2018-12-20T11:27:12.167Z,8.00
2018-12-20T11:29:53.368Z,8.10
2018-12-20T11:32:33.009Z,8.10
2018-12-20T11:35:08.016Z,8.10
2018-12-20T11:37:42.005Z,8.10
2018-12-20T11:40:21.172Z,8.10
2018-12-20T11:42:54.427Z,8.10
2018-12-20T11:45:29.400Z,8.20
2018-12-20T11:48:04.079Z,8.20
2018-12-20T11:50:40.047Z,8.10
2018-12-20T11:53:29.850Z,8.10
2018-12-20T11:56:18.999Z,8.10
2018-12-20T11:58:54.188Z,8.10
2018-12-20T12:01:35.379Z,8.30
2018-12-20T12:04:10.691Z,8.50
2018-12-20T12:06:43.368Z,8.70
2018-12-20T12:09:17.426Z,8.70
2018-12-20T12:11:57.268Z,8.70
2018-12-20T12:14:32.127Z,8.80
2018-12-20T12:17:04.585Z,8.90
2018-12-20T12:19:43.645Z,9.00
2018-12-20T12:22:28.667Z,9.20
2018-12-20T12:25:01.829Z,9.10
2018-12-20T12:27:33.787Z,9.00
2018-12-20T12:30:14.188Z,8.80
2018-12-20T12:32:50.602Z,8.70
2018-12-20T12:35:26.290Z,8.60
2018-12-20T12:38:05.252Z,8.50
2018-12-20T12:40:49.673Z,8.40
2018-12-20T12:43:24.005Z,8.30
2018-12-20T12:46:06.018Z,8.30
2018-12-20T12:48:41.439Z,8.30
2018-12-20T12:51:19.105Z,8.30
2018-12-20T12:53:58.046Z,8.30
2018-12-20T12:56:38.284Z,8.20
2018-12-20T12:59:12.880Z,8.20
2018-12-20T13:01:53.793Z,8.10
2018-12-20T13:04:29.593Z,8.10
2018-12-20T13:07:04.212Z,8.10
2018-12-20T13:09:39.045Z,8.10
2018-12-20T13:12:26.250Z,8.20
2018-12-20T13:15:00.370Z,8.40
2018-12-20T13:17:33.041Z,8.40
2018-12-20T13:20:14.252Z,8.40
2018-12-20T13:22:53.753Z,8.40
2018-12-20T13:25:29.500Z,8.40
2018-12-20T13:28:10.524Z,8.40
2018-12-20T13:31:02.580Z,8.30
2018-12-20T13:33:39.318Z,8.20
2018-12-20T13:36:28.405Z,8.20
2018-12-20T13:39:00.267Z,8.10
2018-12-20T13:41:38.212Z,8.10
2018-12-20T13:44:11.267Z,8.10
2018-12-20T13:52:34.980Z,8.00
2018-12-20T13:55:09.692Z,8.00
2018-12-20T13:57:53.059Z,7.90
2018-12-20T14:00:28.328Z,8.00
2018-12-20T14:03:01.433Z,8.00
2018-12-20T14:05:47.935Z,7.90
2018-12-20T14:08:28.959Z,8.00
2018-12-20T14:11:01.184Z,8.00
2018-12-20T14:13:36.778Z,8.00
2018-12-20T14:16:09.882Z,7.90
2018-12-20T14:18:42.689Z,8.00
2018-12-20T14:21:18.023Z,8.00
2018-12-20T14:23:51.720Z,7.90
2018-12-20T14:26:32.321Z,7.90
2018-12-20T14:29:07.838Z,7.90
2018-12-20T14:31:44.464Z,7.80
2018-12-20T14:34:22.252Z,7.80
2018-12-20T14:37:01.253Z,7.70
2018-12-20T14:39:33.891Z,7.70
2018-12-20T14:42:19.423Z,7.80
2018-12-20T14:44:53.781Z,7.70
2018-12-20T14:47:28.487Z,7.60
2018-12-20T14:50:02.058Z,7.60
2018-12-20T14:52:37.141Z,7.60
2018-12-20T14:55:11.811Z,7.60
2018-12-20T14:57:43.715Z,7.60
2018-12-20T15:00:15.698Z,7.60
2018-12-20T15:02:53.927Z,7.50
2018-12-20T15:05:28.747Z,7.50
2018-12-20T15:08:09.887Z,7.50
2018-12-20T15:10:43.977Z,7.50
2018-12-20T15:13:19.289Z,7.40
2018-12-20T15:15:51.731Z,7.40
2018-12-20T15:18:27.712Z,7.40
2018-12-20T15:21:02.239Z,7.30
2018-12-20T15:23:35.596Z,7.30
2018-12-20T15:26:19.939Z,7.30
2018-12-20T15:28:57.370Z,7.30
2018-12-20T15:31:29.856Z,7.20
2018-12-20T15:34:01.648Z,7.20
2018-12-20T15:36:44.029Z,7.30
2018-12-20T15:39:19.594Z,7.20
2018-12-20T15:41:52.505Z,7.20
2018-12-20T15:44:26.899Z,7.20
2018-12-20T15:47:00.486Z,7.10
2018-12-20T15:49:42.048Z,7.10
2018-12-20T15:52:16.528Z,7.10
2018-12-20T15:54:52.307Z,7.10
2018-12-20T15:57:30.133Z,7.10
2018-12-20T16:00:08.120Z,7.10
2018-12-20T16:02:45.256Z,7.10
2018-12-20T16:05:19.877Z,7.00
2018-12-20T16:08:00.809Z,7.00
2018-12-20T16:10:36.759Z,7.00
2018-12-20T16:13:18.607Z,7.00
2018-12-20T16:15:53.240Z,6.90
2018-12-20T16:18:26.268Z,6.90
2018-12-20T16:21:00.495Z,6.90
2018-12-20T16:23:34.532Z,6.90
2018-12-20T16:26:09.788Z,6.90
2018-12-20T16:28:43.004Z,6.90
2018-12-20T16:31:17.403Z,6.90
2018-12-20T16:36:44.995Z,6.90
2018-12-20T16:39:19.686Z,6.90
2018-12-20T16:41:58.418Z,6.90
2018-12-20T16:44:46.482Z,6.90
2018-12-20T16:47:29.345Z,6.90
2018-12-20T16:50:08.555Z,6.90
2018-12-20T16:52:44.403Z,6.90
2018-12-20T16:55:17.856Z,6.90
2018-12-20T16:57:54.231Z,6.90
2018-12-20T17:00:30.151Z,7.00
2018-12-20T17:03:17.184Z,7.00
2018-12-20T17:05:51.854Z,7.00
2018-12-20T17:11:23.325Z,7.00
2018-12-20T17:13:59.009Z,7.00
2018-12-20T17:16:40.420Z,7.00
2018-12-20T17:19:22.132Z,7.00
2018-12-20T17:21:56.961Z,7.00
2018-12-20T17:24:36.752Z,7.00
2018-12-20T17:27:11.764Z,7.00
2018-12-20T17:29:52.848Z,7.00
2018-12-20T17:32:29.643Z,7.00
2018-12-20T17:35:09.270Z,7.00
2018-12-20T17:37:46.107Z,7.00
2018-12-20T17:40:22.102Z,7.00
2018-12-20T17:42:55.618Z,7.00
2018-12-20T17:45:27.620Z,7.00
2018-12-20T17:48:01.746Z,7.00
2018-12-20T17:50:36.841Z,7.00
2018-12-20T17:53:13.129Z,7.00
2018-12-20T17:55:54.463Z,7.10
2018-12-20T17:58:28.818Z,7.10
2018-12-20T18:01:17.210Z,7.10
2018-12-20T18:03:51.282Z,7.10
2018-12-20T18:06:27.548Z,7.10
2018-12-20T18:09:00.725Z,7.10
2018-12-20T18:11:32.654Z,7.10
2018-12-20T18:14:08.155Z,7.10
2018-12-20T18:16:44.167Z,7.10
2018-12-20T18:19:20.846Z,7.10
2018-12-20T18:21:54.881Z,7.10
2018-12-20T18:24:29.585Z,7.10
2018-12-20T18:27:05.930Z,7.10
2018-12-20T18:29:40.507Z,7.10
2018-12-20T18:32:15.139Z,7.10
2018-12-20T18:34:49.762Z,7.10
2018-12-20T18:37:24.514Z,7.10
2018-12-20T18:40:01.225Z,7.00
2018-12-20T18:42:36.910Z,7.00
2018-12-20T18:45:13.895Z,7.00
2018-12-20T18:47:50.716Z,7.00
2018-12-20T18:50:32.016Z,7.00
2018-12-20T18:53:05.062Z,7.00
2018-12-20T18:55:41.310Z,7.00
2018-12-20T18:58:16.241Z,7.00
2018-12-20T19:00:51.825Z,7.00
2018-12-20T19:03:28.688Z,7.00
2018-12-20T19:06:01.312Z,7.00
2018-12-20T19:08:35.626Z,7.10
2018-12-20T19:11:22.856Z,7.10
2018-12-20T19:14:02.153Z,7.10
2018-12-20T19:16:38.232Z,7.10
2018-12-20T19:19:15.046Z,7.10
2018-12-20T19:24:43.405Z,7.10
2018-12-20T19:27:16.136Z,7.10
2018-12-20T19:29:50.156Z,7.20
2018-12-20T19:32:23.681Z,7.20
2018-12-20T19:37:50.368Z,7.20
2018-12-20T19:40:30.832Z,7.20
2018-12-20T19:43:16.714Z,7.10
2018-12-20T19:45:51.063Z,7.20
2018-12-20T19:48:26.067Z,7.20
2018-12-20T19:51:13.309Z,7.20
2018-12-20T19:53:51.450Z,7.20
2018-12-20T19:56:26.405Z,7.20
2018-12-20T19:59:18.434Z,7.20
2018-12-20T20:01:53.870Z,7.20
2018-12-20T20:04:29.382Z,7.20
2018-12-20T20:07:05.283Z,7.20
2018-12-20T20:09:52.215Z,7.20
2018-12-20T20:15:18.855Z,7.20
2018-12-20T20:17:53.932Z,7.20
2018-12-20T20:20:29.376Z,7.20
2018-12-20T20:23:08.109Z,7.10
2018-12-20T20:25:48.067Z,7.20
2018-12-20T20:28:22.830Z,7.20
2018-12-20T20:33:51.013Z,7.20
2018-12-20T20:36:25.918Z,7.10
2018-12-20T20:39:05.913Z,7.10
2018-12-20T20:41:51.929Z,7.10
2018-12-20T20:44:26.374Z,7.10
2018-12-20T20:47:02.274Z,7.10
2018-12-20T20:49:35.618Z,7.10
2018-12-20T20:52:10.220Z,7.20
2018-12-20T20:54:46.637Z,7.10
2018-12-20T20:57:19.551Z,7.10
2018-12-20T20:59:54.733Z,7.20
2018-12-20T21:02:29.386Z,7.20
2018-12-20T21:05:03.563Z,7.20
2018-12-20T21:07:38.403Z,7.20
2018-12-20T21:10:18.301Z,7.20
2018-12-20T21:12:54.164Z,7.20
2018-12-20T21:15:33.941Z,7.20
2018-12-20T21:18:10.760Z,7.30
2018-12-20T21:20:46.455Z,7.30
2018-12-20T21:23:21.757Z,7.30
2018-12-20T21:26:08.817Z,7.40
2018-12-20T21:28:42.838Z,7.30
2018-12-20T21:31:18.480Z,7.30
2018-12-20T21:34:01.517Z,7.30
2018-12-20T21:36:35.976Z,7.30
2018-12-20T21:39:10.561Z,7.30
2018-12-20T21:41:50.776Z,7.30
2018-12-20T21:44:25.329Z,7.30
2018-12-20T21:46:59.414Z,7.30
2018-12-20T21:49:34.236Z,7.30
2018-12-20T21:52:22.338Z,7.30
2018-12-20T21:54:56.489Z,7.30
2018-12-20T21:57:43.923Z,7.30
2018-12-20T22:00:20.017Z,7.30
2018-12-20T22:05:46.653Z,7.20
2018-12-20T22:08:22.912Z,7.20
2018-12-20T22:10:56.507Z,7.20
2018-12-20T22:13:48.423Z,7.20
2018-12-20T22:16:23.469Z,7.20
2018-12-20T22:18:59.328Z,7.10
2018-12-20T22:21:34.934Z,7.10
2018-12-20T22:24:11.846Z,7.10
2018-12-20T22:29:34.874Z,7.10
2018-12-20T22:32:09.539Z,7.10
2018-12-20T22:34:40.183Z,7.10
2018-12-20T22:37:15.808Z,7.00
2018-12-20T22:39:54.864Z,7.00
2018-12-20T22:42:37.087Z,7.00
2018-12-20T22:45:11.535Z,7.00
2018-12-20T22:47:54.657Z,7.00
2018-12-20T22:50:29.257Z,6.90
2018-12-20T22:55:56.962Z,6.90
2018-12-20T22:58:36.104Z,6.90
2018-12-20T23:01:21.326Z,6.90
2018-12-20T23:04:03.527Z,6.90
2018-12-20T23:06:38.427Z,6.90
2018-12-20T23:09:16.962Z,6.90
2018-12-20T23:11:51.917Z,7.00
2018-12-20T23:14:26.888Z,7.00
2018-12-20T23:17:07.933Z,7.00
2018-12-20T23:19:46.234Z,7.00
2018-12-20T23:22:21.138Z,7.00
2018-12-20T23:24:55.685Z,7.00
2018-12-20T23:27:29.821Z,7.00
2018-12-20T23:30:05.783Z,7.10
2018-12-20T23:32:40.383Z,7.10
2018-12-20T23:35:19.217Z,7.10
2018-12-20T23:37:58.165Z,7.10
2018-12-20T23:40:39.601Z,7.10
2018-12-20T23:43:13.822Z,7.10
2018-12-20T23:45:48.550Z,7.20
2018-12-20T23:48:22.129Z,7.10
2018-12-20T23:51:03.775Z,7.10
2018-12-20T23:53:44.834Z,7.20
2018-12-20T23:56:26.488Z,7.20
2018-12-20T23:59:02.101Z,7.20
